sensor_id;sensor_type;location;lat;lon;timestamp;temperature;humidity
55091;DHT22;40985;53.180;5.800;2023-02-15T00:00:10;0.80;99.90
55091;DHT22;40985;53.180;5.800;2023-02-15T00:02:37;0.50;99.90
55091;DHT22;40985;53.180;5.800;2023-02-15T00:05:02;0.70;99.90
55091;DHT22;40985;53.180;5.800;2023-02-15T00:07:28;0.70;99.90
55091;DHT22;40985;53.180;5.800;2023-02-15T00:09:54;0.60;99.90
55091;DHT22;40985;53.180;5.800;2023-02-15T00:12:19;0.30;99.90
55091;DHT22;40985;53.180;5.800;2023-02-15T00:14:45;0.20;99.90
55091;DHT22;40985;53.180;5.800;2023-02-15T00:17:11;0.50;99.90
55091;DHT22;40985;53.180;5.800;2023-02-15T00:19:36;0.40;99.90
55091;DHT22;40985;53.180;5.800;2023-02-15T00:22:02;0.20;99.90
55091;DHT22;40985;53.180;5.800;2023-02-15T00:24:28;0.30;99.90
55091;DHT22;40985;53.180;5.800;2023-02-15T00:26:53;0.30;99.90
55091;DHT22;40985;53.180;5.800;2023-02-15T00:29:20;0.40;99.90
55091;DHT22;40985;53.180;5.800;2023-02-15T00:31:46;0.30;99.90
55091;DHT22;40985;53.180;5.800;2023-02-15T00:36:39;0.30;99.90
55091;DHT22;40985;53.180;5.800;2023-02-15T00:39:05;0.00;99.90
55091;DHT22;40985;53.180;5.800;2023-02-15T00:41:34;0.30;99.90
55091;DHT22;40985;53.180;5.800;2023-02-15T00:44:00;0.20;99.90
55091;DHT22;40985;53.180;5.800;2023-02-15T00:46:26;0.20;99.90
55091;DHT22;40985;53.180;5.800;2023-02-15T00:48:52;0.00;99.90
55091;DHT22;40985;53.180;5.800;2023-02-15T00:51:18;-0.10;99.90
55091;DHT22;40985;53.180;5.800;2023-02-15T00:53:44;-0.10;99.90
55091;DHT22;40985;53.180;5.800;2023-02-15T00:56:10;0.10;99.90
55091;DHT22;40985;53.180;5.800;2023-02-15T00:58:36;-0.10;99.90
55091;DHT22;40985;53.180;5.800;2023-02-15T01:01:07;-0.10;99.90
55091;DHT22;40985;53.180;5.800;2023-02-15T01:03:33;-0.20;99.90
55091;DHT22;40985;53.180;5.800;2023-02-15T01:05:59;0.10;99.90
55091;DHT22;40985;53.180;5.800;2023-02-15T01:08:25;-0.10;99.90
55091;DHT22;40985;53.180;5.800;2023-02-15T01:10:51;0.00;99.90
55091;DHT22;40985;53.180;5.800;2023-02-15T01:13:17;0.10;99.90
55091;DHT22;40985;53.180;5.800;2023-02-15T01:15:43;-0.10;99.90
55091;DHT22;40985;53.180;5.800;2023-02-15T01:18:10;-0.20;99.90
55091;DHT22;40985;53.180;5.800;2023-02-15T01:20:38;-0.40;99.90
55091;DHT22;40985;53.180;5.800;2023-02-15T01:23:05;-0.30;99.90
55091;DHT22;40985;53.180;5.800;2023-02-15T01:25:33;-0.10;99.90
55091;DHT22;40985;53.180;5.800;2023-02-15T01:27:59;-0.40;99.90
55091;DHT22;40985;53.180;5.800;2023-02-15T01:30:25;-0.40;99.90
55091;DHT22;40985;53.180;5.800;2023-02-15T01:32:51;-0.50;99.90
55091;DHT22;40985;53.180;5.800;2023-02-15T01:35:16;-0.50;99.90
55091;DHT22;40985;53.180;5.800;2023-02-15T01:37:42;-0.30;99.90
55091;DHT22;40985;53.180;5.800;2023-02-15T01:40:12;-0.50;99.90
55091;DHT22;40985;53.180;5.800;2023-02-15T01:42:39;-0.50;99.90
55091;DHT22;40985;53.180;5.800;2023-02-15T01:47:49;-0.30;99.90
55091;DHT22;40985;53.180;5.800;2023-02-15T01:53:03;-0.60;99.90
55091;DHT22;40985;53.180;5.800;2023-02-15T01:55:38;-0.50;99.90
55091;DHT22;40985;53.180;5.800;2023-02-15T01:58:05;-0.30;99.90
55091;DHT22;40985;53.180;5.800;2023-02-15T02:00:33;-0.30;99.90
55091;DHT22;40985;53.180;5.800;2023-02-15T02:03:00;-0.60;99.90
55091;DHT22;40985;53.180;5.800;2023-02-15T02:05:27;-0.70;99.90
55091;DHT22;40985;53.180;5.800;2023-02-15T02:07:56;-0.70;99.90
55091;DHT22;40985;53.180;5.800;2023-02-15T02:10:23;-0.50;99.90
55091;DHT22;40985;53.180;5.800;2023-02-15T02:12:52;-0.50;99.90
55091;DHT22;40985;53.180;5.800;2023-02-15T02:15:21;-0.60;99.90
55091;DHT22;40985;53.180;5.800;2023-02-15T02:17:54;-0.70;99.90
55091;DHT22;40985;53.180;5.800;2023-02-15T02:20:36;-0.60;99.90
55091;DHT22;40985;53.180;5.800;2023-02-15T02:23:38;-0.50;99.90
55091;DHT22;40985;53.180;5.800;2023-02-15T02:26:36;-0.60;99.90
55091;DHT22;40985;53.180;5.800;2023-02-15T02:35:30;-0.70;99.90
55091;DHT22;40985;53.180;5.800;2023-02-15T02:40:55;-0.80;99.90
55091;DHT22;40985;53.180;5.800;2023-02-15T02:43:33;-0.60;99.90
55091;DHT22;40985;53.180;5.800;2023-02-15T02:46:07;-0.70;99.90
55091;DHT22;40985;53.180;5.800;2023-02-15T02:48:34;-0.90;99.90
55091;DHT22;40985;53.180;5.800;2023-02-15T02:51:00;-0.80;99.90
55091;DHT22;40985;53.180;5.800;2023-02-15T02:53:27;-0.60;99.90
55091;DHT22;40985;53.180;5.800;2023-02-15T02:56:33;-0.90;99.90
55091;DHT22;40985;53.180;5.800;2023-02-15T03:01:38;-0.50;99.90
55091;DHT22;40985;53.180;5.800;2023-02-15T03:04:32;-0.80;99.90
55091;DHT22;40985;53.180;5.800;2023-02-15T03:07:04;-0.70;99.90
55091;DHT22;40985;53.180;5.800;2023-02-15T03:09:39;-1.00;99.90
55091;DHT22;40985;53.180;5.800;2023-02-15T03:12:23;-0.80;99.90
55091;DHT22;40985;53.180;5.800;2023-02-15T03:15:04;-0.70;99.90
55091;DHT22;40985;53.180;5.800;2023-02-15T03:17:32;-0.90;99.90
55091;DHT22;40985;53.180;5.800;2023-02-15T03:20:05;-0.70;99.90
55091;DHT22;40985;53.180;5.800;2023-02-15T03:22:38;-0.90;99.90
55091;DHT22;40985;53.180;5.800;2023-02-15T03:25:30;-1.00;99.90
55091;DHT22;40985;53.180;5.800;2023-02-15T03:28:08;-1.00;99.90
55091;DHT22;40985;53.180;5.800;2023-02-15T03:30:36;-1.00;99.90
55091;DHT22;40985;53.180;5.800;2023-02-15T03:33:04;-0.80;99.90
55091;DHT22;40985;53.180;5.800;2023-02-15T03:38:58;-0.80;99.90
55091;DHT22;40985;53.180;5.800;2023-02-15T03:41:27;-0.80;99.90
55091;DHT22;40985;53.180;5.800;2023-02-15T03:44:06;-1.10;99.90
55091;DHT22;40985;53.180;5.800;2023-02-15T03:46:45;-0.80;99.90
55091;DHT22;40985;53.180;5.800;2023-02-15T03:49:26;-1.10;99.90
55091;DHT22;40985;53.180;5.800;2023-02-15T03:51:54;-1.00;99.90
55091;DHT22;40985;53.180;5.800;2023-02-15T03:54:27;-1.00;99.90
55091;DHT22;40985;53.180;5.800;2023-02-15T03:59:57;-1.20;99.90
55091;DHT22;40985;53.180;5.800;2023-02-15T04:05:15;-1.10;99.90
55091;DHT22;40985;53.180;5.800;2023-02-15T04:07:41;-1.00;99.90
55091;DHT22;40985;53.180;5.800;2023-02-15T04:10:06;-1.10;99.90
55091;DHT22;40985;53.180;5.800;2023-02-15T04:12:50;-1.30;99.90
55091;DHT22;40985;53.180;5.800;2023-02-15T04:15:16;-1.30;99.90
55091;DHT22;40985;53.180;5.800;2023-02-15T04:18:02;-1.20;99.90
55091;DHT22;40985;53.180;5.800;2023-02-15T04:20:28;-1.20;99.90
55091;DHT22;40985;53.180;5.800;2023-02-15T04:23:12;-1.20;99.90
55091;DHT22;40985;53.180;5.800;2023-02-15T04:25:56;-1.10;99.90
55091;DHT22;40985;53.180;5.800;2023-02-15T04:28:22;-1.10;99.90
55091;DHT22;40985;53.180;5.800;2023-02-15T04:30:48;-1.30;99.90
55091;DHT22;40985;53.180;5.800;2023-02-15T04:33:13;-1.00;99.90
55091;DHT22;40985;53.180;5.800;2023-02-15T04:35:39;-1.20;99.90
55091;DHT22;40985;53.180;5.800;2023-02-15T04:38:05;-1.40;99.90
55091;DHT22;40985;53.180;5.800;2023-02-15T04:40:30;-1.20;99.90
55091;DHT22;40985;53.180;5.800;2023-02-15T04:42:56;-1.10;99.90
55091;DHT22;40985;53.180;5.800;2023-02-15T04:45:22;-1.10;99.90
55091;DHT22;40985;53.180;5.800;2023-02-15T04:47:47;-1.10;99.90
55091;DHT22;40985;53.180;5.800;2023-02-15T04:50:13;-1.30;99.90
55091;DHT22;40985;53.180;5.800;2023-02-15T04:52:39;-0.70;99.90
55091;DHT22;40985;53.180;5.800;2023-02-15T04:55:05;-1.40;99.90
55091;DHT22;40985;53.180;5.800;2023-02-15T04:57:30;-1.00;99.90
55091;DHT22;40985;53.180;5.800;2023-02-15T04:59:56;-1.10;99.90
55091;DHT22;40985;53.180;5.800;2023-02-15T05:02:24;-1.00;99.90
55091;DHT22;40985;53.180;5.800;2023-02-15T05:04:50;-1.10;99.90
55091;DHT22;40985;53.180;5.800;2023-02-15T05:07:15;-1.10;99.90
55091;DHT22;40985;53.180;5.800;2023-02-15T05:09:41;-1.30;99.90
55091;DHT22;40985;53.180;5.800;2023-02-15T05:12:07;-1.00;99.90
55091;DHT22;40985;53.180;5.800;2023-02-15T05:14:32;-1.20;99.90
55091;DHT22;40985;53.180;5.800;2023-02-15T05:16:58;-1.30;99.90
55091;DHT22;40985;53.180;5.800;2023-02-15T05:19:27;-1.00;99.90
55091;DHT22;40985;53.180;5.800;2023-02-15T05:21:52;-1.20;99.90
55091;DHT22;40985;53.180;5.800;2023-02-15T05:24:18;-1.00;99.90
55091;DHT22;40985;53.180;5.800;2023-02-15T05:27:02;-1.00;99.90
55091;DHT22;40985;53.180;5.800;2023-02-15T05:29:47;-0.90;99.90
55091;DHT22;40985;53.180;5.800;2023-02-15T05:32:13;-1.10;99.90
55091;DHT22;40985;53.180;5.800;2023-02-15T05:34:39;-1.30;99.90
55091;DHT22;40985;53.180;5.800;2023-02-15T05:37:05;-1.30;99.90
55091;DHT22;40985;53.180;5.800;2023-02-15T05:39:30;-1.30;99.90
55091;DHT22;40985;53.180;5.800;2023-02-15T05:41:59;-1.30;99.90
55091;DHT22;40985;53.180;5.800;2023-02-15T05:44:25;-1.30;99.90
55091;DHT22;40985;53.180;5.800;2023-02-15T05:46:51;-1.20;99.90
55091;DHT22;40985;53.180;5.800;2023-02-15T05:49:16;-1.30;99.90
55091;DHT22;40985;53.180;5.800;2023-02-15T05:51:42;-1.40;99.90
55091;DHT22;40985;53.180;5.800;2023-02-15T05:54:07;-1.30;99.90
55091;DHT22;40985;53.180;5.800;2023-02-15T05:56:33;-1.10;99.90
55091;DHT22;40985;53.180;5.800;2023-02-15T05:58:59;-1.30;99.90
55091;DHT22;40985;53.180;5.800;2023-02-15T06:01:25;-1.30;99.90
55091;DHT22;40985;53.180;5.800;2023-02-15T06:03:53;-1.50;99.90
55091;DHT22;40985;53.180;5.800;2023-02-15T06:06:21;-1.20;99.90
55091;DHT22;40985;53.180;5.800;2023-02-15T06:08:47;-1.20;99.90
55091;DHT22;40985;53.180;5.800;2023-02-15T06:11:12;-1.40;99.90
55091;DHT22;40985;53.180;5.800;2023-02-15T06:13:38;-1.10;99.90
55091;DHT22;40985;53.180;5.800;2023-02-15T06:16:05;-1.50;99.90
55091;DHT22;40985;53.180;5.800;2023-02-15T06:18:30;-1.40;99.90
55091;DHT22;40985;53.180;5.800;2023-02-15T06:20:56;-1.30;99.90
55091;DHT22;40985;53.180;5.800;2023-02-15T06:23:22;-1.20;99.90
55091;DHT22;40985;53.180;5.800;2023-02-15T06:25:47;-1.30;99.90
55091;DHT22;40985;53.180;5.800;2023-02-15T06:28:14;-1.50;99.90
55091;DHT22;40985;53.180;5.800;2023-02-15T06:30:39;-1.30;99.90
55091;DHT22;40985;53.180;5.800;2023-02-15T06:33:05;-1.40;99.90
55091;DHT22;40985;53.180;5.800;2023-02-15T06:35:31;-1.20;99.90
55091;DHT22;40985;53.180;5.800;2023-02-15T06:37:56;-1.50;99.90
55091;DHT22;40985;53.180;5.800;2023-02-15T06:40:22;-1.50;99.90
55091;DHT22;40985;53.180;5.800;2023-02-15T06:42:48;-1.40;99.90
55091;DHT22;40985;53.180;5.800;2023-02-15T06:45:13;-1.20;99.90
55091;DHT22;40985;53.180;5.800;2023-02-15T06:47:39;-1.30;99.90
55091;DHT22;40985;53.180;5.800;2023-02-15T06:50:06;-1.20;99.90
55091;DHT22;40985;53.180;5.800;2023-02-15T06:52:32;-1.40;99.90
55091;DHT22;40985;53.180;5.800;2023-02-15T06:54:58;-1.20;99.90
55091;DHT22;40985;53.180;5.800;2023-02-15T06:57:24;-1.10;99.90
55091;DHT22;40985;53.180;5.800;2023-02-15T06:59:49;-1.20;99.90
55091;DHT22;40985;53.180;5.800;2023-02-15T07:02:15;-1.40;99.90
55091;DHT22;40985;53.180;5.800;2023-02-15T07:04:41;-1.20;99.90
55091;DHT22;40985;53.180;5.800;2023-02-15T07:07:11;-1.00;99.90
55091;DHT22;40985;53.180;5.800;2023-02-15T07:09:37;-1.10;99.90
55091;DHT22;40985;53.180;5.800;2023-02-15T07:12:03;-1.20;99.90
55091;DHT22;40985;53.180;5.800;2023-02-15T07:14:47;-1.30;99.90
55091;DHT22;40985;53.180;5.800;2023-02-15T07:17:13;-1.00;99.90
55091;DHT22;40985;53.180;5.800;2023-02-15T07:19:38;-1.10;99.90
55091;DHT22;40985;53.180;5.800;2023-02-15T07:22:04;-1.20;99.90
55091;DHT22;40985;53.180;5.800;2023-02-15T07:24:30;-0.90;99.90
55091;DHT22;40985;53.180;5.800;2023-02-15T07:26:56;-0.80;99.90
55091;DHT22;40985;53.180;5.800;2023-02-15T07:29:23;-1.00;99.90
55091;DHT22;40985;53.180;5.800;2023-02-15T07:31:48;-1.00;99.90
55091;DHT22;40985;53.180;5.800;2023-02-15T07:34:14;-1.00;99.90
55091;DHT22;40985;53.180;5.800;2023-02-15T07:36:40;-0.70;99.90
55091;DHT22;40985;53.180;5.800;2023-02-15T07:39:05;-0.60;99.90
55091;DHT22;40985;53.180;5.800;2023-02-15T07:41:31;-0.50;99.90
55091;DHT22;40985;53.180;5.800;2023-02-15T07:43:57;-0.70;99.90
55091;DHT22;40985;53.180;5.800;2023-02-15T07:46:22;-0.90;99.90
55091;DHT22;40985;53.180;5.800;2023-02-15T07:48:48;-0.80;99.90
55091;DHT22;40985;53.180;5.800;2023-02-15T07:51:14;-0.50;99.90
55091;DHT22;40985;53.180;5.800;2023-02-15T07:53:41;-0.60;99.90
55091;DHT22;40985;53.180;5.800;2023-02-15T07:56:10;-0.60;99.90
55091;DHT22;40985;53.180;5.800;2023-02-15T07:58:36;-0.50;99.90
55091;DHT22;40985;53.180;5.800;2023-02-15T08:01:25;-0.70;99.90
55091;DHT22;40985;53.180;5.800;2023-02-15T08:03:53;-0.60;99.90
55091;DHT22;40985;53.180;5.800;2023-02-15T08:06:19;-0.50;99.90
55091;DHT22;40985;53.180;5.800;2023-02-15T08:08:45;-0.50;99.90
55091;DHT22;40985;53.180;5.800;2023-02-15T08:11:21;-0.40;99.90
55091;DHT22;40985;53.180;5.800;2023-02-15T08:16:46;-0.40;99.90
55091;DHT22;40985;53.180;5.800;2023-02-15T08:21:40;0.00;99.90
55091;DHT22;40985;53.180;5.800;2023-02-15T08:24:07;0.00;99.90
55091;DHT22;40985;53.180;5.800;2023-02-15T08:26:34;-0.20;99.90
55091;DHT22;40985;53.180;5.800;2023-02-15T08:29:00;-0.10;99.90
55091;DHT22;40985;53.180;5.800;2023-02-15T08:31:27;0.00;99.90
55091;DHT22;40985;53.180;5.800;2023-02-15T08:33:54;0.20;99.90
55091;DHT22;40985;53.180;5.800;2023-02-15T08:36:22;0.30;99.90
55091;DHT22;40985;53.180;5.800;2023-02-15T08:38:49;0.50;99.90
55091;DHT22;40985;53.180;5.800;2023-02-15T08:41:17;0.40;99.90
55091;DHT22;40985;53.180;5.800;2023-02-15T08:43:46;0.30;99.90
55091;DHT22;40985;53.180;5.800;2023-02-15T08:46:13;0.70;99.90
55091;DHT22;40985;53.180;5.800;2023-02-15T08:48:40;0.40;99.90
55091;DHT22;40985;53.180;5.800;2023-02-15T08:53:37;1.00;99.90
55091;DHT22;40985;53.180;5.800;2023-02-15T08:56:03;0.90;99.90
55091;DHT22;40985;53.180;5.800;2023-02-15T08:58:29;1.20;99.90
55091;DHT22;40985;53.180;5.800;2023-02-15T09:00:56;1.30;99.90
55091;DHT22;40985;53.180;5.800;2023-02-15T09:03:22;1.10;99.90
55091;DHT22;40985;53.180;5.800;2023-02-15T09:05:48;1.20;99.90
55091;DHT22;40985;53.180;5.800;2023-02-15T09:08:14;1.60;99.90
55091;DHT22;40985;53.180;5.800;2023-02-15T09:10:40;1.40;99.90
55091;DHT22;40985;53.180;5.800;2023-02-15T09:13:06;1.40;99.90
55091;DHT22;40985;53.180;5.800;2023-02-15T09:15:32;1.60;99.90
55091;DHT22;40985;53.180;5.800;2023-02-15T09:17:58;2.00;99.90
55091;DHT22;40985;53.180;5.800;2023-02-15T09:20:31;2.20;99.90
55091;DHT22;40985;53.180;5.800;2023-02-15T09:22:57;2.30;99.90
55091;DHT22;40985;53.180;5.800;2023-02-15T09:25:23;2.50;99.90
55091;DHT22;40985;53.180;5.800;2023-02-15T09:27:49;2.20;99.90
55091;DHT22;40985;53.180;5.800;2023-02-15T09:30:14;2.50;99.90
55091;DHT22;40985;53.180;5.800;2023-02-15T09:32:40;2.50;99.90
55091;DHT22;40985;53.180;5.800;2023-02-15T09:35:06;3.00;99.90
55091;DHT22;40985;53.180;5.800;2023-02-15T09:37:31;3.10;99.90
55091;DHT22;40985;53.180;5.800;2023-02-15T09:39:57;3.20;99.90
55091;DHT22;40985;53.180;5.800;2023-02-15T09:48:13;3.60;99.90
55091;DHT22;40985;53.180;5.800;2023-02-15T10:04:18;4.00;99.90
55091;DHT22;40985;53.180;5.800;2023-02-15T10:12:44;4.60;99.90
55091;DHT22;40985;53.180;5.800;2023-02-15T10:20:56;4.80;99.90
55091;DHT22;40985;53.180;5.800;2023-02-15T10:31:25;5.30;99.90
55091;DHT22;40985;53.180;5.800;2023-02-15T10:45:13;5.90;99.90
55091;DHT22;40985;53.180;5.800;2023-02-15T10:48:06;6.00;99.90
55091;DHT22;40985;53.180;5.800;2023-02-15T10:50:51;6.20;99.90
55091;DHT22;40985;53.180;5.800;2023-02-15T10:59:19;6.40;99.90
55091;DHT22;40985;53.180;5.800;2023-02-15T11:01:59;6.50;99.90
55091;DHT22;40985;53.180;5.800;2023-02-15T11:04:39;6.50;99.90
55091;DHT22;40985;53.180;5.800;2023-02-15T11:07:23;6.60;99.90
55091;DHT22;40985;53.180;5.800;2023-02-15T11:12:55;6.80;99.90
55091;DHT22;40985;53.180;5.800;2023-02-15T11:15:39;7.00;99.90
55091;DHT22;40985;53.180;5.800;2023-02-15T11:21:13;7.20;99.90
55091;DHT22;40985;53.180;5.800;2023-02-15T11:23:44;7.30;99.90
55091;DHT22;40985;53.180;5.800;2023-02-15T11:28:58;7.40;99.90
55091;DHT22;40985;53.180;5.800;2023-02-15T11:31:26;7.50;99.90
55091;DHT22;40985;53.180;5.800;2023-02-15T11:34:00;7.60;99.90
55091;DHT22;40985;53.180;5.800;2023-02-15T11:36:39;7.60;99.90
55091;DHT22;40985;53.180;5.800;2023-02-15T11:39:12;7.80;99.90
55091;DHT22;40985;53.180;5.800;2023-02-15T11:41:43;7.90;99.90
55091;DHT22;40985;53.180;5.800;2023-02-15T11:44:26;8.00;99.90
55091;DHT22;40985;53.180;5.800;2023-02-15T11:46:53;8.10;99.90
55091;DHT22;40985;53.180;5.800;2023-02-15T11:49:30;8.20;99.90
55091;DHT22;40985;53.180;5.800;2023-02-15T11:51:58;8.30;99.90
55091;DHT22;40985;53.180;5.800;2023-02-15T11:54:28;8.30;99.90
55091;DHT22;40985;53.180;5.800;2023-02-15T11:59:40;8.40;99.90
55091;DHT22;40985;53.180;5.800;2023-02-15T12:02:17;8.50;99.90
55091;DHT22;40985;53.180;5.800;2023-02-15T12:04:52;8.50;99.90
55091;DHT22;40985;53.180;5.800;2023-02-15T12:07:30;8.50;99.90
55091;DHT22;40985;53.180;5.800;2023-02-15T12:12:37;8.70;99.90
55091;DHT22;40985;53.180;5.800;2023-02-15T12:15:08;8.70;99.90
55091;DHT22;40985;53.180;5.800;2023-02-15T12:17:41;8.90;99.90
55091;DHT22;40985;53.180;5.800;2023-02-15T12:22:39;9.00;99.90
55091;DHT22;40985;53.180;5.800;2023-02-15T12:25:41;9.10;99.90
55091;DHT22;40985;53.180;5.800;2023-02-15T12:30:56;9.20;99.90
55091;DHT22;40985;53.180;5.800;2023-02-15T12:33:29;9.30;99.90
55091;DHT22;40985;53.180;5.800;2023-02-15T12:36:44;9.30;99.90
55091;DHT22;40985;53.180;5.800;2023-02-15T12:41:44;9.50;99.90
55091;DHT22;40985;53.180;5.800;2023-02-15T12:44:19;9.50;99.90
55091;DHT22;40985;53.180;5.800;2023-02-15T12:47:03;9.50;99.90
55091;DHT22;40985;53.180;5.800;2023-02-15T12:49:37;9.40;99.90
55091;DHT22;40985;53.180;5.800;2023-02-15T12:54:43;9.40;99.90
55091;DHT22;40985;53.180;5.800;2023-02-15T12:57:33;9.40;99.90
55091;DHT22;40985;53.180;5.800;2023-02-15T13:00:25;9.30;99.90
55091;DHT22;40985;53.180;5.800;2023-02-15T13:02:54;9.30;99.90
55091;DHT22;40985;53.180;5.800;2023-02-15T13:05:39;9.20;99.90
55091;DHT22;40985;53.180;5.800;2023-02-15T13:16:36;9.10;99.90
55091;DHT22;40985;53.180;5.800;2023-02-15T13:19:18;9.10;99.90
55091;DHT22;40985;53.180;5.800;2023-02-15T13:21:47;9.20;99.90
55091;DHT22;40985;53.180;5.800;2023-02-15T13:24:23;9.20;99.90
55091;DHT22;40985;53.180;5.800;2023-02-15T13:26:49;9.10;99.90
55091;DHT22;40985;53.180;5.800;2023-02-15T13:29:36;9.10;99.90
55091;DHT22;40985;53.180;5.800;2023-02-15T13:32:30;9.10;99.90
55091;DHT22;40985;53.180;5.800;2023-02-15T13:34:59;9.10;99.90
55091;DHT22;40985;53.180;5.800;2023-02-15T13:42:54;9.20;99.90
55091;DHT22;40985;53.180;5.800;2023-02-15T14:05:06;9.00;99.90
55091;DHT22;40985;53.180;5.800;2023-02-15T14:16:23;8.90;99.90
55091;DHT22;40985;53.180;5.800;2023-02-15T14:18:51;8.90;99.90
55091;DHT22;40985;53.180;5.800;2023-02-15T14:21:31;9.00;99.90
55091;DHT22;40985;53.180;5.800;2023-02-15T14:26:50;9.00;99.90
55091;DHT22;40985;53.180;5.800;2023-02-15T14:31:59;9.10;99.90
55091;DHT22;40985;53.180;5.800;2023-02-15T14:34:50;9.10;99.90
55091;DHT22;40985;53.180;5.800;2023-02-15T14:37:35;9.10;99.90
55091;DHT22;40985;53.180;5.800;2023-02-15T14:46:21;9.10;99.90
55091;DHT22;40985;53.180;5.800;2023-02-15T14:48:55;9.00;99.90
55091;DHT22;40985;53.180;5.800;2023-02-15T14:54:10;9.00;99.90
55091;DHT22;40985;53.180;5.800;2023-02-15T14:56:36;8.90;99.90
55091;DHT22;40985;53.180;5.800;2023-02-15T14:59:18;8.90;99.90
55091;DHT22;40985;53.180;5.800;2023-02-15T15:02:07;8.90;99.90
55091;DHT22;40985;53.180;5.800;2023-02-15T15:07:36;8.80;99.90
55091;DHT22;40985;53.180;5.800;2023-02-15T15:12:51;8.70;99.90
55091;DHT22;40985;53.180;5.800;2023-02-15T15:17:54;8.60;99.90
55091;DHT22;40985;53.180;5.800;2023-02-15T15:25:48;8.30;99.90
55091;DHT22;40985;53.180;5.800;2023-02-15T15:39:32;7.90;99.90
55091;DHT22;40985;53.180;5.800;2023-02-15T15:42:13;7.90;99.90
55091;DHT22;40985;53.180;5.800;2023-02-15T15:50:44;7.70;99.90
55091;DHT22;40985;53.180;5.800;2023-02-15T15:53:20;7.50;99.90
55091;DHT22;40985;53.180;5.800;2023-02-15T15:55:48;7.60;99.90
55091;DHT22;40985;53.180;5.800;2023-02-15T15:58:17;7.50;99.90
55091;DHT22;40985;53.180;5.800;2023-02-15T16:00:51;7.40;99.90
55091;DHT22;40985;53.180;5.800;2023-02-15T16:03:22;7.40;99.90
55091;DHT22;40985;53.180;5.800;2023-02-15T16:05:48;7.30;99.90
55091;DHT22;40985;53.180;5.800;2023-02-15T16:08:36;7.30;99.90
55091;DHT22;40985;53.180;5.800;2023-02-15T16:11:13;7.20;99.90
55091;DHT22;40985;53.180;5.800;2023-02-15T16:13:41;7.20;99.90
55091;DHT22;40985;53.180;5.800;2023-02-15T16:16:07;7.10;99.90
55091;DHT22;40985;53.180;5.800;2023-02-15T16:18:37;7.00;99.90
55091;DHT22;40985;53.180;5.800;2023-02-15T16:21:04;7.00;99.90
55091;DHT22;40985;53.180;5.800;2023-02-15T16:23:43;6.90;99.90
55091;DHT22;40985;53.180;5.800;2023-02-15T16:28:58;6.80;99.90
55091;DHT22;40985;53.180;5.800;2023-02-15T16:31:24;6.80;99.90
55091;DHT22;40985;53.180;5.800;2023-02-15T16:33:53;6.70;99.90
55091;DHT22;40985;53.180;5.800;2023-02-15T16:36:26;6.60;99.90
55091;DHT22;40985;53.180;5.800;2023-02-15T16:41:22;6.50;99.90
55091;DHT22;40985;53.180;5.800;2023-02-15T16:43:50;6.50;99.90
55091;DHT22;40985;53.180;5.800;2023-02-15T16:46:32;6.40;99.90
55091;DHT22;40985;53.180;5.800;2023-02-15T16:49:00;6.30;99.90
55091;DHT22;40985;53.180;5.800;2023-02-15T16:51:30;6.30;99.90
55091;DHT22;40985;53.180;5.800;2023-02-15T16:54:00;6.30;99.90
55091;DHT22;40985;53.180;5.800;2023-02-15T16:56:30;6.20;99.90
55091;DHT22;40985;53.180;5.800;2023-02-15T16:58:57;6.10;99.90
55091;DHT22;40985;53.180;5.800;2023-02-15T17:01:26;6.10;99.90
55091;DHT22;40985;53.180;5.800;2023-02-15T17:04:29;6.00;99.90
55091;DHT22;40985;53.180;5.800;2023-02-15T17:07:17;6.00;99.90
55091;DHT22;40985;53.180;5.800;2023-02-15T17:09:51;6.00;99.90
55091;DHT22;40985;53.180;5.800;2023-02-15T17:12:46;5.90;99.90
55091;DHT22;40985;53.180;5.800;2023-02-15T17:17:50;5.90;99.90
55091;DHT22;40985;53.180;5.800;2023-02-15T17:20:18;5.80;99.90
55091;DHT22;40985;53.180;5.800;2023-02-15T17:22:44;5.80;99.90
55091;DHT22;40985;53.180;5.800;2023-02-15T17:25:23;5.80;99.90
55091;DHT22;40985;53.180;5.800;2023-02-15T17:27:55;5.70;99.90
55091;DHT22;40985;53.180;5.800;2023-02-15T17:30:28;5.70;99.90
55091;DHT22;40985;53.180;5.800;2023-02-15T17:33:00;5.60;99.90
55091;DHT22;40985;53.180;5.800;2023-02-15T17:35:31;5.70;99.90
55091;DHT22;40985;53.180;5.800;2023-02-15T17:38:20;5.60;99.90
55091;DHT22;40985;53.180;5.800;2023-02-15T17:40:46;5.60;99.90
55091;DHT22;40985;53.180;5.800;2023-02-15T17:43:12;5.60;99.90
55091;DHT22;40985;53.180;5.800;2023-02-15T17:45:44;5.60;99.90
55091;DHT22;40985;53.180;5.800;2023-02-15T17:48:31;5.50;99.90
55091;DHT22;40985;53.180;5.800;2023-02-15T17:51:02;5.40;99.90
55091;DHT22;40985;53.180;5.800;2023-02-15T17:53:28;5.40;99.90
55091;DHT22;40985;53.180;5.800;2023-02-15T17:55:54;5.40;99.90
55091;DHT22;40985;53.180;5.800;2023-02-15T17:58:20;5.40;99.90
55091;DHT22;40985;53.180;5.800;2023-02-15T18:00:52;5.40;99.90
55091;DHT22;40985;53.180;5.800;2023-02-15T18:03:39;5.40;99.90
55091;DHT22;40985;53.180;5.800;2023-02-15T18:06:24;5.40;99.90
55091;DHT22;40985;53.180;5.800;2023-02-15T18:09:10;5.40;99.90
55091;DHT22;40985;53.180;5.800;2023-02-15T18:11:55;5.50;99.90
55091;DHT22;40985;53.180;5.800;2023-02-15T18:14:21;5.50;99.90
55091;DHT22;40985;53.180;5.800;2023-02-15T18:16:46;5.50;99.90
55091;DHT22;40985;53.180;5.800;2023-02-15T18:19:18;5.50;99.90
55091;DHT22;40985;53.180;5.800;2023-02-15T18:21:45;5.60;99.90
55091;DHT22;40985;53.180;5.800;2023-02-15T18:24:21;5.50;99.90
55091;DHT22;40985;53.180;5.800;2023-02-15T18:26:49;5.60;99.90
55091;DHT22;40985;53.180;5.800;2023-02-15T18:29:15;5.60;99.90
55091;DHT22;40985;53.180;5.800;2023-02-15T18:31:42;5.60;99.90
55091;DHT22;40985;53.180;5.800;2023-02-15T18:36:52;5.70;99.90
55091;DHT22;40985;53.180;5.800;2023-02-15T18:39:26;5.60;99.90
55091;DHT22;40985;53.180;5.800;2023-02-15T18:41:52;5.60;99.90
55091;DHT22;40985;53.180;5.800;2023-02-15T18:44:18;5.60;99.90
55091;DHT22;40985;53.180;5.800;2023-02-15T18:46:44;5.60;99.90
55091;DHT22;40985;53.180;5.800;2023-02-15T18:49:09;5.50;99.90
55091;DHT22;40985;53.180;5.800;2023-02-15T18:51:35;5.50;99.90
55091;DHT22;40985;53.180;5.800;2023-02-15T18:54:05;5.50;99.90
55091;DHT22;40985;53.180;5.800;2023-02-15T18:56:35;5.50;99.90
55091;DHT22;40985;53.180;5.800;2023-02-15T18:59:01;5.50;99.90
55091;DHT22;40985;53.180;5.800;2023-02-15T19:01:27;5.50;99.90
55091;DHT22;40985;53.180;5.800;2023-02-15T19:03:52;5.60;99.90
55091;DHT22;40985;53.180;5.800;2023-02-15T19:06:20;5.60;99.90
55091;DHT22;40985;53.180;5.800;2023-02-15T19:08:48;5.60;99.90
55091;DHT22;40985;53.180;5.800;2023-02-15T19:11:22;5.60;99.90
55091;DHT22;40985;53.180;5.800;2023-02-15T19:13:50;5.60;99.90
55091;DHT22;40985;53.180;5.800;2023-02-15T19:16:32;5.70;99.90
55091;DHT22;40985;53.180;5.800;2023-02-15T19:18:58;5.60;99.90
55091;DHT22;40985;53.180;5.800;2023-02-15T19:21:26;5.70;99.90
55091;DHT22;40985;53.180;5.800;2023-02-15T19:24:00;5.70;99.90
55091;DHT22;40985;53.180;5.800;2023-02-15T19:26:27;5.70;99.90
55091;DHT22;40985;53.180;5.800;2023-02-15T19:29:00;5.70;99.90
55091;DHT22;40985;53.180;5.800;2023-02-15T19:31:26;5.70;99.90
55091;DHT22;40985;53.180;5.800;2023-02-15T19:33:52;5.70;99.90
55091;DHT22;40985;53.180;5.800;2023-02-15T19:36:18;5.70;99.90